createdAt,value
2022-10-18T00:02:06.649Z,2.67
2022-10-18T00:04:33.633Z,2.83
2022-10-18T00:07:00.238Z,3.17
2022-10-18T00:09:27.747Z,3.00
2022-10-18T00:11:55.534Z,3.03
2022-10-18T00:14:22.395Z,3.60
2022-10-18T00:16:49.095Z,3.47
2022-10-18T00:19:15.716Z,3.25
2022-10-18T00:24:11.305Z,3.35
2022-10-18T00:26:37.928Z,4.25
2022-10-18T00:29:05.930Z,3.17
2022-10-18T00:31:35.413Z,3.50
2022-10-18T00:34:13.663Z,4.03
2022-10-18T00:36:40.284Z,3.88
2022-10-18T00:39:08.390Z,3.10
2022-10-18T00:41:37.989Z,3.63
2022-10-18T00:44:27.334Z,3.90
2022-10-18T00:47:02.326Z,3.83
2022-10-18T00:49:35.381Z,4.32
2022-10-18T00:52:26.136Z,4.18
2022-10-18T00:54:54.261Z,4.28
2022-10-18T00:57:21.149Z,4.43
2022-10-18T00:59:48.210Z,4.43
2022-10-18T01:02:18.293Z,4.50
2022-10-18T01:04:46.755Z,4.70
2022-10-18T01:07:25.974Z,4.40
2022-10-18T01:10:01.618Z,3.97
2022-10-18T01:12:49.340Z,4.05
2022-10-18T01:15:20.482Z,3.88
2022-10-18T01:18:19.041Z,3.95
2022-10-18T01:20:51.663Z,4.10
2022-10-18T01:23:31.592Z,4.10
2022-10-18T01:26:42.782Z,4.20
2022-10-18T01:29:30.786Z,4.40
2022-10-18T01:32:12.887Z,3.90
2022-10-18T01:34:43.218Z,3.88
2022-10-18T01:37:14.293Z,4.05
2022-10-18T01:39:44.271Z,4.05
2022-10-18T01:42:14.024Z,3.80
2022-10-18T01:44:42.866Z,3.80
2022-10-18T01:47:11.641Z,4.22
2022-10-18T01:49:38.203Z,3.53
2022-10-18T01:52:05.224Z,3.42
2022-10-18T01:54:36.431Z,3.88
2022-10-18T01:57:09.791Z,3.53
2022-10-18T01:59:45.319Z,3.63
2022-10-18T02:02:42.082Z,3.28
2022-10-18T02:05:24.528Z,3.22
2022-10-18T02:08:12.503Z,3.60
2022-10-18T02:10:50.672Z,2.83
2022-10-18T02:13:21.347Z,3.28
2022-10-18T02:15:51.476Z,3.20
2022-10-18T02:18:42.502Z,3.03
2022-10-18T02:21:13.575Z,3.17
2022-10-18T02:23:40.159Z,3.00
2022-10-18T02:26:07.154Z,2.67
2022-10-18T02:28:34.027Z,3.60
2022-10-18T02:31:15.916Z,3.47
2022-10-18T02:33:56.780Z,2.92
2022-10-18T02:36:32.103Z,3.38
2022-10-18T02:39:04.646Z,3.65
2022-10-18T02:41:32.220Z,3.08
2022-10-18T02:43:58.855Z,3.38
2022-10-18T02:48:57.167Z,3.33
2022-10-18T02:51:23.769Z,3.00
2022-10-18T02:53:50.359Z,3.35
2022-10-18T02:56:16.952Z,3.00
2022-10-18T02:58:43.542Z,4.25
2022-10-18T03:01:10.209Z,3.25
2022-10-18T03:03:36.903Z,3.20
2022-10-18T03:06:03.586Z,3.15
2022-10-18T03:08:30.236Z,3.42
2022-10-18T03:10:56.868Z,3.53
2022-10-18T03:13:23.576Z,2.88
2022-10-18T03:15:50.171Z,3.08
2022-10-18T03:18:16.783Z,3.00
2022-10-18T03:20:43.811Z,3.30
2022-10-18T03:23:10.499Z,3.08
2022-10-18T03:25:37.091Z,3.35
2022-10-18T03:28:03.975Z,3.50
2022-10-18T03:30:30.630Z,3.42
2022-10-18T03:32:57.254Z,3.15
2022-10-18T03:35:23.854Z,2.88
2022-10-18T03:37:50.994Z,3.08
2022-10-18T03:40:18.170Z,3.40
2022-10-18T03:42:44.898Z,3.50
2022-10-18T03:45:11.626Z,2.97
2022-10-18T03:47:38.256Z,3.20
2022-10-18T03:50:05.387Z,3.40
2022-10-18T03:52:32.182Z,3.53
2022-10-18T03:54:59.011Z,3.40
2022-10-18T03:57:25.675Z,3.10
2022-10-18T03:59:52.259Z,3.58
2022-10-18T04:02:19.047Z,3.35
2022-10-18T04:04:45.678Z,2.90
2022-10-18T04:07:12.346Z,3.10
2022-10-18T04:09:38.930Z,3.88
2022-10-18T04:12:05.695Z,3.08
2022-10-18T04:14:32.274Z,3.15
2022-10-18T04:16:58.880Z,3.17
2022-10-18T04:19:25.447Z,3.60
2022-10-18T04:21:52.046Z,4.00
2022-10-18T04:24:18.629Z,3.88
2022-10-18T04:26:45.482Z,4.13
2022-10-18T04:29:12.351Z,4.00
2022-10-18T04:31:39.002Z,4.22
2022-10-18T04:34:05.563Z,3.78
2022-10-18T04:36:32.218Z,3.63
2022-10-18T04:38:58.778Z,3.95
2022-10-18T04:41:25.485Z,3.45
2022-10-18T04:43:52.056Z,3.30
2022-10-18T04:46:18.756Z,3.75
2022-10-18T04:48:45.327Z,3.88
2022-10-18T04:51:11.982Z,4.18
2022-10-18T04:53:38.716Z,3.95
2022-10-18T04:56:05.708Z,4.32
2022-10-18T04:58:32.810Z,4.03
2022-10-18T05:00:59.494Z,3.97
2022-10-18T05:03:26.093Z,4.90
2022-10-18T05:06:08.032Z,4.05
2022-10-18T05:08:35.987Z,4.72
2022-10-18T05:11:03.985Z,4.10
2022-10-18T05:13:31.071Z,4.07
2022-10-18T05:15:59.529Z,3.90
2022-10-18T05:18:26.352Z,3.83
2022-10-18T05:20:52.955Z,4.07
2022-10-18T05:23:19.563Z,4.05
2022-10-18T05:25:46.280Z,4.00
2022-10-18T05:28:34.694Z,3.88
2022-10-18T05:31:04.378Z,4.18
2022-10-18T05:33:31.012Z,3.97
2022-10-18T05:35:57.938Z,4.28
2022-10-18T05:38:24.992Z,4.70
2022-10-18T05:40:52.123Z,4.00
2022-10-18T05:43:18.795Z,4.20
2022-10-18T05:45:51.537Z,3.83
2022-10-18T05:48:18.654Z,4.10
2022-10-18T05:50:45.811Z,4.60
2022-10-18T05:53:24.680Z,4.47
2022-10-18T05:56:02.741Z,4.72
2022-10-18T05:58:29.390Z,5.18
2022-10-18T06:01:01.511Z,4.32
2022-10-18T06:03:30.340Z,4.32
2022-10-18T06:06:05.347Z,4.57
2022-10-18T06:08:32.688Z,4.72
2022-10-18T06:10:59.709Z,4.35
2022-10-18T06:13:26.381Z,4.18
2022-10-18T06:15:57.511Z,4.20
2022-10-18T06:18:24.151Z,4.10
2022-10-18T06:20:56.970Z,4.38
2022-10-18T06:23:23.555Z,4.35
2022-10-18T06:25:50.157Z,4.45
2022-10-18T06:28:17.278Z,4.68
2022-10-18T06:30:44.570Z,4.40
2022-10-18T06:33:12.116Z,4.55
2022-10-18T06:35:38.683Z,4.40
2022-10-18T06:38:06.321Z,4.45
2022-10-18T06:40:37.956Z,4.68
2022-10-18T06:43:20.007Z,4.97
2022-10-18T06:45:47.046Z,4.55
2022-10-18T06:48:13.642Z,3.70
2022-10-18T06:50:40.314Z,4.03
2022-10-18T06:53:09.036Z,4.78
2022-10-18T06:55:36.252Z,4.90
2022-10-18T06:58:03.016Z,4.47
2022-10-18T07:00:29.757Z,4.57
2022-10-18T07:02:58.310Z,5.05
2022-10-18T07:05:25.126Z,4.60
2022-10-18T07:07:54.336Z,4.82
2022-10-18T07:10:23.916Z,3.90
2022-10-18T07:12:53.445Z,4.72
2022-10-18T07:15:24.188Z,4.43
2022-10-18T07:17:50.938Z,4.70
2022-10-18T07:20:17.789Z,4.50
2022-10-18T07:22:44.374Z,4.35
2022-10-18T07:25:11.161Z,4.78
2022-10-18T07:27:39.917Z,4.05
2022-10-18T07:30:08.340Z,4.40
2022-10-18T07:32:35.019Z,4.10
2022-10-18T07:35:02.541Z,3.53
2022-10-18T07:37:30.274Z,3.92
2022-10-18T07:39:57.036Z,3.53
2022-10-18T07:42:23.691Z,3.63
2022-10-18T07:44:50.653Z,4.07
2022-10-18T07:47:17.331Z,4.25
2022-10-18T07:49:44.052Z,4.00
2022-10-18T07:52:11.255Z,4.65
2022-10-18T07:54:37.875Z,3.78
2022-10-18T07:57:05.108Z,4.35
2022-10-18T07:59:31.677Z,3.75
2022-10-18T08:01:58.302Z,4.00
2022-10-18T08:04:24.950Z,3.90
2022-10-18T08:06:51.862Z,4.70
2022-10-18T08:09:18.448Z,4.00
2022-10-18T08:11:45.022Z,4.00
2022-10-18T08:14:11.643Z,4.13
2022-10-18T08:16:38.223Z,3.65
2022-10-18T08:19:04.850Z,4.22
2022-10-18T08:21:31.928Z,4.40
2022-10-18T08:23:58.539Z,4.00
2022-10-18T08:26:25.166Z,4.22
2022-10-18T08:29:10.386Z,4.45
2022-10-18T08:31:38.671Z,4.25
2022-10-18T08:34:05.249Z,4.20
2022-10-18T08:36:31.972Z,4.13
2022-10-18T08:38:58.765Z,4.22
2022-10-18T08:41:37.321Z,4.45
2022-10-18T08:44:30.873Z,4.03
2022-10-18T08:49:47.609Z,4.80
2022-10-18T08:52:28.406Z,4.38
2022-10-18T08:55:04.230Z,4.20
2022-10-18T08:57:32.836Z,4.32
2022-10-18T08:59:59.868Z,4.22
2022-10-18T09:02:44.975Z,3.92
2022-10-18T09:05:29.563Z,4.18
2022-10-18T09:08:32.947Z,3.90
2022-10-18T09:11:36.648Z,4.18
2022-10-18T09:16:37.443Z,3.70
2022-10-18T09:19:25.323Z,3.83
2022-10-18T09:21:55.340Z,4.05
2022-10-18T09:24:40.214Z,3.60
2022-10-18T09:27:18.598Z,3.83
2022-10-18T09:30:15.540Z,4.32
2022-10-18T09:32:54.803Z,3.70
2022-10-18T09:35:29.828Z,4.15
2022-10-18T09:38:04.298Z,4.32
2022-10-18T09:40:35.431Z,4.20
2022-10-18T09:43:08.358Z,3.45
2022-10-18T09:48:29.026Z,3.78
2022-10-18T09:51:04.479Z,3.80
2022-10-18T09:53:47.567Z,4.15
2022-10-18T09:58:51.446Z,4.43
2022-10-18T10:01:30.783Z,4.00
2022-10-18T10:03:57.747Z,3.63
2022-10-18T10:06:38.718Z,4.32
2022-10-18T10:09:14.108Z,3.53
2022-10-18T10:11:47.183Z,4.10
2022-10-18T10:14:28.826Z,3.75
2022-10-18T10:17:04.070Z,4.03
2022-10-18T10:19:41.084Z,3.75
2022-10-18T10:22:12.114Z,4.03
2022-10-18T10:24:41.491Z,3.42
2022-10-18T10:27:21.173Z,3.60
2022-10-18T10:29:47.778Z,3.70
2022-10-18T10:32:17.243Z,3.58
2022-10-18T10:34:45.041Z,3.78
2022-10-18T10:37:36.619Z,3.17
2022-10-18T10:40:28.401Z,3.50
2022-10-18T10:43:13.187Z,3.85
2022-10-18T10:46:10.071Z,3.92
2022-10-18T10:48:47.223Z,4.60
2022-10-18T10:51:16.166Z,3.60
2022-10-18T10:53:57.348Z,4.03
2022-10-18T10:56:30.945Z,3.83
2022-10-18T10:59:08.902Z,3.80
2022-10-18T11:01:36.567Z,3.88
2022-10-18T11:04:24.920Z,3.90
2022-10-18T11:07:05.086Z,4.03
2022-10-18T11:09:53.277Z,3.58
2022-10-18T11:12:25.838Z,3.85
2022-10-18T11:15:32.665Z,3.80
2022-10-18T11:18:23.163Z,3.53
2022-10-18T11:20:57.098Z,3.60
2022-10-18T11:23:30.934Z,3.22
2022-10-18T11:26:12.861Z,3.47
2022-10-18T11:28:51.599Z,4.40
2022-10-18T11:31:35.612Z,3.72
2022-10-18T11:34:10.339Z,4.22
2022-10-18T11:37:27.135Z,3.40
2022-10-18T11:40:26.850Z,3.92
2022-10-18T11:43:11.610Z,3.55
2022-10-18T11:45:50.459Z,3.42
2022-10-18T11:48:35.467Z,3.90
2022-10-18T11:51:02.082Z,3.25
2022-10-18T11:53:48.369Z,4.10
2022-10-18T11:56:42.650Z,3.75
2022-10-18T11:59:32.251Z,3.10
2022-10-18T12:02:27.738Z,3.58
2022-10-18T12:07:59.111Z,3.33
2022-10-18T12:10:44.105Z,3.45
2022-10-18T12:13:35.336Z,4.10
2022-10-18T12:16:07.166Z,3.95
2022-10-18T12:18:36.148Z,3.67
2022-10-18T12:21:05.578Z,3.50
2022-10-18T12:23:38.162Z,3.72
2022-10-18T12:26:07.908Z,3.60
2022-10-18T12:28:43.771Z,3.65
2022-10-18T12:31:40.042Z,3.30
2022-10-18T12:34:21.935Z,3.90
2022-10-18T12:37:08.756Z,3.58
2022-10-18T12:39:50.435Z,3.17
2022-10-18T12:42:31.968Z,3.75
2022-10-18T12:45:13.889Z,4.00
2022-10-18T12:47:40.789Z,3.90
2022-10-18T12:50:26.924Z,3.25
2022-10-18T12:53:19.212Z,3.13
2022-10-18T12:55:51.725Z,3.40
2022-10-18T12:58:28.531Z,3.15
2022-10-18T13:00:57.423Z,3.40
2022-10-18T13:03:26.966Z,3.00
2022-10-18T13:06:00.708Z,2.35
2022-10-18T13:08:28.460Z,3.03
2022-10-18T13:11:10.231Z,2.40
2022-10-18T13:13:43.869Z,2.47
2022-10-18T13:16:42.959Z,2.33
2022-10-18T13:19:18.475Z,2.70
2022-10-18T13:22:14.175Z,2.88
2022-10-18T13:25:01.903Z,2.30
2022-10-18T13:27:36.774Z,2.42
2022-10-18T13:30:18.562Z,2.50
2022-10-18T13:33:03.853Z,2.60
2022-10-18T13:35:58.465Z,2.50
2022-10-18T13:38:49.763Z,2.40
2022-10-18T13:41:19.726Z,2.90
2022-10-18T13:43:56.150Z,2.58
2022-10-18T13:46:45.735Z,2.55
2022-10-18T13:49:39.812Z,2.63
2022-10-18T13:52:25.067Z,3.00
2022-10-18T13:55:14.730Z,3.25
2022-10-18T13:58:07.906Z,2.55
2022-10-18T14:00:56.272Z,2.70
2022-10-18T14:03:56.776Z,2.70
2022-10-18T14:06:29.061Z,2.58
2022-10-18T14:09:09.398Z,2.90
2022-10-18T14:12:14.164Z,3.35
2022-10-18T14:14:55.808Z,3.58
2022-10-18T14:17:51.795Z,3.55
2022-10-18T14:20:32.741Z,3.47
2022-10-18T14:23:08.071Z,3.60
2022-10-18T14:25:36.817Z,3.65
2022-10-18T14:28:16.845Z,3.92
2022-10-18T14:31:07.274Z,3.65
2022-10-18T14:33:38.008Z,3.33
2022-10-18T14:36:15.821Z,3.70
2022-10-18T14:39:06.829Z,3.55
2022-10-18T14:41:47.398Z,3.80
2022-10-18T14:44:18.580Z,3.30
2022-10-18T14:46:52.023Z,3.72
2022-10-18T14:49:20.548Z,3.47
2022-10-18T14:51:56.318Z,3.65
2022-10-18T14:54:31.574Z,3.38
2022-10-18T14:57:00.541Z,3.42
2022-10-18T14:59:29.648Z,3.70
2022-10-18T15:02:00.024Z,3.50
2022-10-18T15:04:33.201Z,3.67
2022-10-18T15:07:05.917Z,3.65
2022-10-18T15:09:35.435Z,3.60
2022-10-18T15:12:07.106Z,3.83
2022-10-18T15:14:34.840Z,3.60
2022-10-18T15:17:26.068Z,3.40
2022-10-18T15:19:59.365Z,3.47
2022-10-18T15:22:33.318Z,2.85
2022-10-18T15:25:11.338Z,3.22
2022-10-18T15:27:39.621Z,2.90
2022-10-18T15:30:17.763Z,2.92
2022-10-18T15:32:51.102Z,2.75
2022-10-18T15:35:26.124Z,3.00
2022-10-18T15:37:54.092Z,3.20
2022-10-18T15:40:23.488Z,3.30
2022-10-18T15:42:52.298Z,2.83
2022-10-18T15:45:24.680Z,3.22
2022-10-18T15:48:10.763Z,3.03
2022-10-18T15:50:41.060Z,2.78
2022-10-18T15:53:23.007Z,3.17
2022-10-18T15:56:31.345Z,2.95
2022-10-18T15:58:59.921Z,3.20
2022-10-18T16:01:43.299Z,3.22
2022-10-18T16:04:30.728Z,3.03
2022-10-18T16:06:58.195Z,3.30
2022-10-18T16:09:27.513Z,3.15
2022-10-18T16:11:57.274Z,3.17
2022-10-18T16:14:25.632Z,3.60
2022-10-18T16:16:55.830Z,3.28
2022-10-18T16:19:22.962Z,3.33
2022-10-18T16:21:51.140Z,2.90
2022-10-18T16:24:18.836Z,3.40
2022-10-18T16:26:46.054Z,3.40
2022-10-18T16:29:21.617Z,3.80
2022-10-18T16:31:48.215Z,3.33
2022-10-18T16:34:14.925Z,3.13
2022-10-18T16:36:41.907Z,3.45
2022-10-18T16:39:15.262Z,3.50
2022-10-18T16:41:41.870Z,3.72
2022-10-18T16:44:08.545Z,3.63
2022-10-18T16:46:36.220Z,3.65
2022-10-18T16:49:03.499Z,4.30
2022-10-18T16:51:30.193Z,3.50
2022-10-18T16:53:57.100Z,3.97
2022-10-18T16:56:32.426Z,4.20
2022-10-18T16:58:59.835Z,4.10
2022-10-18T17:01:27.372Z,4.13
2022-10-18T17:03:55.310Z,3.83
2022-10-18T17:06:25.855Z,3.95
2022-10-18T17:08:53.907Z,4.20
2022-10-18T17:11:21.816Z,4.30
2022-10-18T17:13:48.488Z,4.75
2022-10-18T17:16:23.242Z,3.63
2022-10-18T17:18:49.978Z,4.07
2022-10-18T17:21:16.788Z,4.22
2022-10-18T17:23:43.364Z,4.55
2022-10-18T17:26:28.200Z,4.55
2022-10-18T17:28:58.382Z,4.78
2022-10-18T17:31:25.348Z,4.25
2022-10-18T17:33:54.679Z,4.32
2022-10-18T17:36:21.850Z,4.30
2022-10-18T17:38:52.068Z,4.70
2022-10-18T17:41:18.671Z,5.22
2022-10-18T17:43:45.393Z,4.38
2022-10-18T17:46:13.249Z,4.15
2022-10-18T17:48:41.021Z,4.38
2022-10-18T17:51:09.483Z,3.90
2022-10-18T17:53:36.434Z,4.40
2022-10-18T17:56:04.616Z,4.88
2022-10-18T17:58:32.261Z,5.57
2022-10-18T18:01:12.824Z,5.22
2022-10-18T18:03:39.889Z,4.00
2022-10-18T18:06:13.556Z,4.43
2022-10-18T18:08:40.149Z,4.10
2022-10-18T18:11:07.156Z,3.95
2022-10-18T18:13:33.803Z,4.70
2022-10-18T18:16:14.129Z,4.50
2022-10-18T18:18:41.141Z,4.15
2022-10-18T18:21:07.862Z,4.43
2022-10-18T18:23:34.477Z,4.60
2022-10-18T18:26:01.114Z,4.40
2022-10-18T18:28:27.859Z,4.30
2022-10-18T18:30:54.476Z,4.53
2022-10-18T18:33:21.187Z,3.80
2022-10-18T18:35:58.182Z,4.15
2022-10-18T18:38:25.602Z,3.70
2022-10-18T18:41:10.743Z,4.00
2022-10-18T18:43:38.730Z,4.30
2022-10-18T18:46:05.840Z,4.47
2022-10-18T18:48:34.216Z,4.07
2022-10-18T18:51:01.932Z,3.80
2022-10-18T18:53:29.752Z,3.72
2022-10-18T18:56:08.060Z,3.92
2022-10-18T18:58:36.551Z,4.03
2022-10-18T19:01:17.966Z,3.88
2022-10-18T19:03:47.444Z,4.07
2022-10-18T19:06:19.690Z,3.97
2022-10-18T19:08:46.891Z,4.00
2022-10-18T19:11:16.743Z,3.95
2022-10-18T19:13:43.547Z,3.75
2022-10-18T19:16:26.605Z,3.60
2022-10-18T19:18:58.929Z,3.75
2022-10-18T19:21:28.963Z,3.90
2022-10-18T19:23:56.582Z,3.88
2022-10-18T19:26:45.393Z,4.57
2022-10-18T19:29:14.314Z,4.30
2022-10-18T19:31:41.253Z,4.50
2022-10-18T19:34:10.574Z,4.18
2022-10-18T19:36:38.141Z,5.35
2022-10-18T19:39:07.121Z,6.00
2022-10-18T19:41:33.768Z,6.32
2022-10-18T19:44:00.563Z,5.57
2022-10-18T19:46:27.290Z,5.55
2022-10-18T19:48:54.323Z,5.53
2022-10-18T19:51:25.521Z,6.47
2022-10-18T19:53:55.918Z,5.43
2022-10-18T19:56:24.429Z,6.43
2022-10-18T19:58:51.271Z,6.07
2022-10-18T20:01:18.647Z,6.28
2022-10-18T20:03:46.015Z,6.53
2022-10-18T20:06:13.196Z,5.80
2022-10-18T20:08:39.996Z,5.80
2022-10-18T20:11:12.740Z,6.10
2022-10-18T20:13:40.106Z,5.82
2022-10-18T20:16:09.024Z,6.05
2022-10-18T20:18:36.607Z,6.25
2022-10-18T20:21:07.594Z,5.20
2022-10-18T20:23:39.243Z,4.97
2022-10-18T20:26:07.148Z,5.60
2022-10-18T20:28:34.607Z,6.45
2022-10-18T20:31:07.447Z,5.75
2022-10-18T20:33:35.296Z,5.38
2022-10-18T20:36:04.088Z,5.30
2022-10-18T20:38:32.009Z,5.53
2022-10-18T20:41:03.455Z,5.75
2022-10-18T20:43:30.127Z,5.90
2022-10-18T20:45:58.323Z,5.28
2022-10-18T20:48:26.148Z,4.57
2022-10-18T20:50:52.835Z,5.30
2022-10-18T20:53:20.099Z,5.43
2022-10-18T20:55:46.692Z,5.43
2022-10-18T20:58:13.305Z,5.68
2022-10-18T21:00:39.924Z,6.07
2022-10-18T21:03:06.581Z,6.88
2022-10-18T21:05:33.401Z,6.05
2022-10-18T21:07:59.967Z,6.05
2022-10-18T21:10:26.605Z,4.85
2022-10-18T21:12:53.534Z,4.70
2022-10-18T21:15:20.150Z,5.50
2022-10-18T21:17:51.483Z,6.25
2022-10-18T21:20:18.978Z,5.90
2022-10-18T21:22:45.645Z,5.05
2022-10-18T21:25:12.397Z,4.97
2022-10-18T21:27:39.551Z,6.65
2022-10-18T21:30:06.529Z,6.03
2022-10-18T21:32:33.289Z,5.32
2022-10-18T21:35:00.139Z,5.50
2022-10-18T21:37:26.747Z,5.97
2022-10-18T21:39:53.334Z,5.55
2022-10-18T21:42:19.928Z,5.78
2022-10-18T21:44:46.664Z,5.60
2022-10-18T21:47:13.282Z,6.30
2022-10-18T21:49:39.842Z,6.45
2022-10-18T21:52:06.650Z,4.72
2022-10-18T21:54:33.268Z,6.07
2022-10-18T21:56:59.843Z,5.85
2022-10-18T21:59:26.474Z,4.65
2022-10-18T22:01:53.081Z,4.38
2022-10-18T22:04:24.730Z,5.38
2022-10-18T22:06:51.977Z,4.95
2022-10-18T22:09:19.974Z,5.82
2022-10-18T22:11:50.405Z,5.65
2022-10-18T22:14:17.147Z,5.28
2022-10-18T22:16:43.742Z,5.63
2022-10-18T22:19:10.626Z,5.50
2022-10-18T22:21:37.228Z,4.22
2022-10-18T22:24:06.888Z,5.13
2022-10-18T22:26:40.251Z,5.50
2022-10-18T22:29:10.604Z,6.05
2022-10-18T22:31:39.663Z,5.95
2022-10-18T22:34:10.462Z,6.38
2022-10-18T22:36:37.231Z,5.43
2022-10-18T22:39:08.204Z,5.60
2022-10-18T22:41:35.333Z,5.93
2022-10-18T22:44:03.833Z,5.95
2022-10-18T22:46:31.588Z,6.40
2022-10-18T22:48:58.233Z,5.85
2022-10-18T22:51:24.940Z,5.85
2022-10-18T22:53:51.741Z,6.63
2022-10-18T22:56:21.065Z,6.63
2022-10-18T22:58:50.775Z,6.68
2022-10-18T23:01:20.797Z,6.85
2022-10-18T23:03:55.515Z,6.93
2022-10-18T23:06:25.327Z,7.07
2022-10-18T23:08:53.536Z,6.50
2022-10-18T23:11:20.751Z,5.80
2022-10-18T23:13:47.905Z,5.95
2022-10-18T23:16:14.879Z,6.20
2022-10-18T23:18:42.887Z,6.55
2022-10-18T23:21:11.956Z,5.30
2022-10-18T23:23:40.906Z,5.88
2022-10-18T23:26:10.811Z,5.78
2022-10-18T23:28:40.183Z,5.63
2022-10-18T23:31:13.756Z,5.65
2022-10-18T23:33:41.252Z,5.53
2022-10-18T23:36:08.958Z,5.13
2022-10-18T23:38:36.864Z,5.35
2022-10-18T23:41:08.231Z,5.30
2022-10-18T23:43:35.436Z,5.28
2022-10-18T23:46:02.641Z,5.28
2022-10-18T23:48:29.295Z,5.55
2022-10-18T23:50:56.060Z,5.80
2022-10-18T23:53:23.251Z,5.28
2022-10-18T23:55:54.399Z,4.95
2022-10-18T23:58:20.985Z,5.65
